createdAt,value
2018-09-30T00:02:17.467Z,51.10
2018-09-30T00:04:45.550Z,51.10
2018-09-30T00:07:13.643Z,51.00
2018-09-30T00:09:41.767Z,51.10
2018-09-30T00:12:09.867Z,51.20
2018-09-30T00:14:37.944Z,51.20
2018-09-30T00:17:06.023Z,51.20
2018-09-30T00:19:34.156Z,51.20
2018-09-30T00:22:02.487Z,51.20
2018-09-30T00:24:35.939Z,51.20
2018-09-30T00:27:09.499Z,51.00
2018-09-30T00:29:37.571Z,51.00
2018-09-30T00:32:05.668Z,51.00
2018-09-30T00:34:33.999Z,51.00
2018-09-30T00:37:02.091Z,51.00
2018-09-30T00:39:30.160Z,51.10
2018-09-30T00:41:58.231Z,51.00
2018-09-30T00:44:26.300Z,51.00
2018-09-30T00:46:54.402Z,51.10
2018-09-30T00:49:22.508Z,51.10
2018-09-30T00:51:50.606Z,51.20
2018-09-30T00:54:18.674Z,51.20
2018-09-30T00:56:46.751Z,51.20
2018-09-30T00:59:14.826Z,51.20
2018-09-30T01:01:43.138Z,51.10
2018-09-30T01:04:11.215Z,51.00
2018-09-30T01:06:39.278Z,51.00
2018-09-30T01:09:12.843Z,51.00
2018-09-30T01:11:41.135Z,51.00
2018-09-30T01:14:09.530Z,51.00
2018-09-30T01:16:37.599Z,51.30
2018-09-30T01:19:05.852Z,51.00
2018-09-30T01:21:34.131Z,51.10
2018-09-30T01:24:02.244Z,51.10
2018-09-30T01:26:30.330Z,51.50
2018-09-30T01:28:58.479Z,51.20
2018-09-30T01:31:26.575Z,51.20
2018-09-30T01:33:54.812Z,51.20
2018-09-30T01:36:23.129Z,51.10
2018-09-30T01:38:51.215Z,51.20
2018-09-30T01:41:19.296Z,51.20
2018-09-30T01:43:47.392Z,51.20
2018-09-30T01:46:15.498Z,51.20
2018-09-30T01:48:43.588Z,51.30
2018-09-30T01:51:11.676Z,51.20
2018-09-30T01:53:39.775Z,51.00
2018-09-30T01:56:07.887Z,50.90
2018-09-30T01:58:35.980Z,50.90
2018-09-30T02:01:04.063Z,51.00
2018-09-30T02:03:32.151Z,51.00
2018-09-30T02:06:00.238Z,51.00
2018-09-30T02:08:28.348Z,51.00
2018-09-30T02:10:56.430Z,51.20
2018-09-30T02:13:24.523Z,51.20
2018-09-30T02:15:52.606Z,51.20
2018-09-30T02:18:20.716Z,51.30
2018-09-30T02:20:48.935Z,51.30
2018-09-30T02:23:17.032Z,51.30
2018-09-30T02:25:45.388Z,51.20
2018-09-30T02:28:13.504Z,51.00
2018-09-30T02:30:41.583Z,50.90
2018-09-30T02:33:09.703Z,51.00
2018-09-30T02:35:37.842Z,51.00
2018-09-30T02:38:05.920Z,51.10
2018-09-30T02:40:34.324Z,51.10
2018-09-30T02:43:02.398Z,51.10
2018-09-30T02:45:30.773Z,51.10
2018-09-30T02:47:58.856Z,51.10
2018-09-30T02:50:26.953Z,51.00
2018-09-30T02:52:55.137Z,51.00
2018-09-30T02:55:23.244Z,51.00
2018-09-30T02:57:51.374Z,51.00
2018-09-30T03:00:19.471Z,51.00
2018-09-30T03:02:47.555Z,50.90
2018-09-30T03:05:15.658Z,50.90
2018-09-30T03:08:46.997Z,51.00
2018-09-30T03:11:15.083Z,51.00
2018-09-30T03:13:43.282Z,51.10
2018-09-30T03:16:11.383Z,51.20
2018-09-30T03:18:39.479Z,51.10
2018-09-30T03:21:07.560Z,51.10
2018-09-30T03:23:35.651Z,51.10
2018-09-30T03:26:03.762Z,51.00
2018-09-30T03:28:31.878Z,51.00
2018-09-30T03:30:59.953Z,51.00
2018-09-30T03:33:28.046Z,51.00
2018-09-30T03:35:56.139Z,51.00
2018-09-30T03:38:24.227Z,50.90
2018-09-30T03:40:52.333Z,50.90
2018-09-30T03:43:20.423Z,51.00
2018-09-30T03:45:48.531Z,51.00
2018-09-30T03:48:16.864Z,51.10
2018-09-30T03:50:44.969Z,51.20
2018-09-30T03:53:13.051Z,51.00
2018-09-30T03:55:41.172Z,51.00
2018-09-30T03:58:09.251Z,51.00
2018-09-30T04:00:37.348Z,51.00
2018-09-30T04:03:05.453Z,51.00
2018-09-30T04:05:33.543Z,51.00
2018-09-30T04:08:01.624Z,51.00
2018-09-30T04:10:29.717Z,51.00
2018-09-30T04:12:57.960Z,51.00
2018-09-30T04:15:26.084Z,50.80
2018-09-30T04:17:54.221Z,50.90
2018-09-30T04:20:22.317Z,50.90
2018-09-30T04:22:50.528Z,51.00
2018-09-30T04:25:18.628Z,51.00
2018-09-30T04:27:46.720Z,51.00
2018-09-30T04:30:14.823Z,51.20
2018-09-30T04:32:42.966Z,51.20
2018-09-30T04:35:11.071Z,51.20
2018-09-30T04:37:39.168Z,51.30
2018-09-30T04:40:07.798Z,51.90
2018-09-30T04:42:36.074Z,51.80
2018-09-30T04:45:04.389Z,51.20
2018-09-30T04:47:32.487Z,51.70
2018-09-30T04:50:00.584Z,50.90
2018-09-30T04:52:28.667Z,51.60
2018-09-30T04:54:56.771Z,51.00
2018-09-30T04:57:24.863Z,51.00
2018-09-30T04:59:53.006Z,51.00
2018-09-30T05:02:21.079Z,51.70
2018-09-30T05:04:49.198Z,51.20
2018-09-30T05:07:17.290Z,51.20
2018-09-30T05:09:45.388Z,51.40
2018-09-30T05:12:13.467Z,51.40
2018-09-30T05:14:41.559Z,51.40
2018-09-30T05:17:09.641Z,51.40
2018-09-30T05:19:37.776Z,51.40
2018-09-30T05:22:06.090Z,51.40
2018-09-30T05:24:34.286Z,51.10
2018-09-30T05:27:02.527Z,51.10
2018-09-30T05:29:30.704Z,51.10
2018-09-30T05:31:58.991Z,51.10
2018-09-30T05:34:27.078Z,51.10
2018-09-30T05:36:55.184Z,51.20
2018-09-30T05:39:23.329Z,51.30
2018-09-30T05:41:51.418Z,51.40
2018-09-30T05:44:19.847Z,51.40
2018-09-30T05:46:47.953Z,52.10
2018-09-30T05:49:16.109Z,51.40
2018-09-30T05:51:44.175Z,52.30
2018-09-30T05:54:12.272Z,51.90
2018-09-30T05:56:40.736Z,51.70
2018-09-30T05:59:09.087Z,51.40
2018-09-30T06:01:37.287Z,50.70
2018-09-30T06:04:05.415Z,50.60
2018-09-30T06:06:33.571Z,50.40
2018-09-30T06:09:01.753Z,50.30
2018-09-30T06:11:29.758Z,50.10
2018-09-30T06:13:57.895Z,50.00
2018-09-30T06:16:26.017Z,49.90
2018-09-30T06:18:54.104Z,49.70
2018-09-30T06:21:22.330Z,49.60
2018-09-30T06:23:50.419Z,49.60
2018-09-30T06:26:18.520Z,49.40
2018-09-30T06:28:46.788Z,49.10
2018-09-30T06:31:14.882Z,49.10
2018-09-30T06:33:43.942Z,49.10
2018-09-30T06:36:13.783Z,49.20
2018-09-30T06:38:44.142Z,49.20
2018-09-30T06:41:13.186Z,48.70
2018-09-30T06:43:41.292Z,48.50
2018-09-30T06:46:09.517Z,49.40
2018-09-30T06:48:37.719Z,49.30
2018-09-30T06:51:06.293Z,49.10
2018-09-30T06:53:34.626Z,48.60
2018-09-30T06:56:02.774Z,48.50
2018-09-30T06:58:30.860Z,48.70
2018-09-30T07:00:59.064Z,48.70
2018-09-30T07:03:27.193Z,48.80
2018-09-30T07:05:55.284Z,49.40
2018-09-30T07:08:23.384Z,48.90
2018-09-30T07:10:51.543Z,49.00
2018-09-30T07:13:19.667Z,49.10
2018-09-30T07:15:47.743Z,49.20
2018-09-30T07:18:16.099Z,49.60
2018-09-30T07:20:44.295Z,50.80
2018-09-30T07:23:13.493Z,51.00
2018-09-30T07:25:41.744Z,52.20
2018-09-30T07:28:09.879Z,52.20
2018-09-30T07:30:37.953Z,49.40
2018-09-30T07:33:06.063Z,49.00
2018-09-30T07:35:34.163Z,48.40
2018-09-30T07:38:02.305Z,48.10
2018-09-30T07:40:31.057Z,48.50
2018-09-30T07:42:59.154Z,47.70
2018-09-30T07:45:27.301Z,47.50
2018-09-30T07:47:55.515Z,47.60
2018-09-30T07:50:23.603Z,46.20
2018-09-30T07:52:51.696Z,46.20
2018-09-30T07:55:19.862Z,45.10
2018-09-30T07:57:47.967Z,44.60
2018-09-30T08:00:16.060Z,45.50
2018-09-30T08:02:44.306Z,44.40
2018-09-30T08:05:12.411Z,44.80
2018-09-30T08:07:40.557Z,45.80
2018-09-30T08:10:08.660Z,46.40
2018-09-30T08:12:36.792Z,47.40
2018-09-30T08:15:04.899Z,46.20
2018-09-30T08:17:33.002Z,44.70
2018-09-30T08:20:01.082Z,44.30
2018-09-30T08:22:29.520Z,44.30
2018-09-30T08:24:57.760Z,43.80
2018-09-30T08:27:25.939Z,43.70
2018-09-30T08:29:54.118Z,42.60
2018-09-30T08:32:22.595Z,43.70
2018-09-30T08:34:50.743Z,42.20
2018-09-30T08:37:24.357Z,42.30
2018-09-30T08:39:52.586Z,41.80
2018-09-30T08:42:20.719Z,43.10
2018-09-30T08:44:51.964Z,42.60
2018-09-30T08:47:26.603Z,42.60
2018-09-30T08:49:55.116Z,42.60
2018-09-30T08:52:23.215Z,42.10
2018-09-30T08:54:51.871Z,42.80
2018-09-30T08:57:20.024Z,43.10
2018-09-30T08:59:48.211Z,44.20
2018-09-30T09:02:16.314Z,44.20
2018-09-30T09:04:44.416Z,44.10
2018-09-30T09:07:13.591Z,44.60
2018-09-30T09:09:41.773Z,43.80
2018-09-30T09:12:09.938Z,43.80
2018-09-30T09:14:38.071Z,45.90
2018-09-30T09:17:06.151Z,45.40
2018-09-30T09:19:35.034Z,45.60
2018-09-30T09:22:03.121Z,46.00
2018-09-30T09:24:31.226Z,46.50
2018-09-30T09:27:00.002Z,46.40
2018-09-30T09:29:28.122Z,46.40
2018-09-30T09:31:56.219Z,52.30
2018-09-30T09:34:24.312Z,48.50
2018-09-30T09:36:52.393Z,47.90
2018-09-30T09:39:20.592Z,47.20
2018-09-30T09:41:48.677Z,47.10
2018-09-30T09:44:16.800Z,46.90
2018-09-30T09:46:44.971Z,46.80
2018-09-30T09:49:13.307Z,46.60
2018-09-30T09:51:42.019Z,46.60
2018-09-30T09:54:10.195Z,46.70
2018-09-30T09:56:38.310Z,48.00
2018-09-30T09:59:06.439Z,50.50
2018-09-30T10:01:34.621Z,48.90
2018-09-30T10:04:02.719Z,48.60
2018-09-30T10:06:30.804Z,48.10
2018-09-30T10:08:59.524Z,47.90
2018-09-30T10:11:27.627Z,47.90
2018-09-30T10:13:55.712Z,48.00
2018-09-30T10:16:23.793Z,47.90
2018-09-30T10:18:51.891Z,47.90
2018-09-30T10:21:20.651Z,48.00
2018-09-30T10:23:48.768Z,48.40
2018-09-30T10:26:16.871Z,49.10
2018-09-30T10:28:44.963Z,50.00
2018-09-30T10:31:13.126Z,49.50
2018-09-30T10:33:41.222Z,49.60
2018-09-30T10:36:09.334Z,50.10
2018-09-30T10:38:37.779Z,50.10
2018-09-30T10:41:06.321Z,51.40
2018-09-30T10:43:34.581Z,50.30
2018-09-30T10:46:02.732Z,51.30
2018-09-30T10:48:30.828Z,50.00
2018-09-30T10:50:58.914Z,49.50
2018-09-30T10:53:27.013Z,49.20
2018-09-30T10:55:55.107Z,49.10
2018-09-30T10:58:23.899Z,49.10
2018-09-30T11:00:52.059Z,49.10
2018-09-30T11:03:20.194Z,49.10
2018-09-30T11:05:48.427Z,49.20
2018-09-30T11:08:16.507Z,49.20
2018-09-30T11:10:44.679Z,49.20
2018-09-30T11:13:12.800Z,49.30
2018-09-30T11:15:40.908Z,49.30
2018-09-30T11:18:08.988Z,49.30
2018-09-30T11:20:37.330Z,49.30
2018-09-30T11:23:05.567Z,49.30
2018-09-30T11:25:33.664Z,49.40
2018-09-30T11:28:01.764Z,50.20
2018-09-30T11:30:30.046Z,49.70
2018-09-30T11:32:58.147Z,49.60
2018-09-30T11:35:26.242Z,49.60
2018-09-30T11:37:54.443Z,49.30
2018-09-30T11:40:23.245Z,49.50
2018-09-30T11:42:51.451Z,49.10
2018-09-30T11:45:19.575Z,48.70
2018-09-30T11:47:47.662Z,48.70
2018-09-30T11:50:15.772Z,48.70
2018-09-30T11:52:44.041Z,48.70
2018-09-30T11:55:12.138Z,48.70
2018-09-30T11:57:40.263Z,48.60
2018-09-30T12:00:08.370Z,48.70
2018-09-30T12:02:36.732Z,48.70
2018-09-30T12:05:04.881Z,48.80
2018-09-30T12:07:32.974Z,48.80
2018-09-30T12:10:01.557Z,48.70
2018-09-30T12:12:29.647Z,48.80
2018-09-30T12:14:58.569Z,48.80
2018-09-30T12:17:26.664Z,48.80
2018-09-30T12:19:55.445Z,48.80
2018-09-30T12:22:23.608Z,48.80
2018-09-30T12:24:51.838Z,49.10
2018-09-30T12:27:20.024Z,49.00
2018-09-30T12:29:48.225Z,48.70
2018-09-30T12:32:16.360Z,48.70
2018-09-30T12:34:44.711Z,48.30
2018-09-30T12:37:12.985Z,48.00
2018-09-30T12:39:41.067Z,47.90
2018-09-30T12:42:09.256Z,47.90
2018-09-30T12:44:37.352Z,47.60
2018-09-30T12:47:05.488Z,47.10
2018-09-30T12:49:33.579Z,46.80
2018-09-30T12:52:01.920Z,46.40
2018-09-30T12:54:30.370Z,46.40
2018-09-30T12:56:58.556Z,46.00
2018-09-30T12:59:26.671Z,45.90
2018-09-30T13:01:56.007Z,45.70
2018-09-30T13:04:24.287Z,45.50
2018-09-30T13:06:52.386Z,45.00
2018-09-30T13:09:21.417Z,44.20
2018-09-30T13:11:49.527Z,43.80
2018-09-30T13:14:17.703Z,45.40
2018-09-30T13:16:45.933Z,46.10
2018-09-30T13:19:14.027Z,46.20
2018-09-30T13:21:42.225Z,46.20
2018-09-30T13:24:10.401Z,46.30
2018-09-30T13:26:39.123Z,46.70
2018-09-30T13:29:07.361Z,48.70
2018-09-30T13:31:35.583Z,48.20
2018-09-30T13:34:03.721Z,47.60
2018-09-30T13:36:31.911Z,46.90
2018-09-30T13:39:00.045Z,46.10
2018-09-30T13:41:28.178Z,45.10
2018-09-30T13:43:56.409Z,44.20
2018-09-30T13:46:24.547Z,44.10
2018-09-30T13:48:52.803Z,43.40
2018-09-30T13:51:20.953Z,43.90
2018-09-30T13:53:49.115Z,42.90
2018-09-30T13:56:17.227Z,43.30
2018-09-30T13:58:45.348Z,43.30
2018-09-30T14:01:13.472Z,43.20
2018-09-30T14:03:41.812Z,43.20
2018-09-30T14:06:10.009Z,42.30
2018-09-30T14:08:38.144Z,43.90
2018-09-30T14:11:06.310Z,43.70
2018-09-30T14:13:34.436Z,43.70
2018-09-30T14:16:02.698Z,43.70
2018-09-30T14:18:30.810Z,43.10
2018-09-30T14:20:58.920Z,44.00
2018-09-30T14:23:27.079Z,44.30
2018-09-30T14:25:55.182Z,44.50
2018-09-30T14:28:23.317Z,44.70
2018-09-30T14:30:51.464Z,45.00
2018-09-30T14:33:19.564Z,45.00
2018-09-30T14:35:47.747Z,45.20
2018-09-30T14:38:15.907Z,45.30
2018-09-30T14:40:44.010Z,45.60
2018-09-30T14:43:17.784Z,45.80
2018-09-30T14:45:45.958Z,46.00
2018-09-30T14:48:14.560Z,46.00
2018-09-30T14:50:42.646Z,46.20
2018-09-30T14:53:10.748Z,46.30
2018-09-30T14:55:38.831Z,46.40
2018-09-30T14:58:06.942Z,46.40
2018-09-30T15:00:35.046Z,46.50
2018-09-30T15:03:03.181Z,46.60
2018-09-30T15:05:31.259Z,46.70
2018-09-30T15:07:59.360Z,46.80
2018-09-30T15:10:27.796Z,46.80
2018-09-30T15:12:55.912Z,46.90
2018-09-30T15:15:24.022Z,47.00
2018-09-30T15:17:52.131Z,46.90
2018-09-30T15:20:20.226Z,46.90
2018-09-30T15:22:48.407Z,46.80
2018-09-30T15:25:16.616Z,47.00
2018-09-30T15:27:44.870Z,46.90
2018-09-30T15:30:12.978Z,47.20
2018-09-30T15:32:41.091Z,47.70
2018-09-30T15:35:09.216Z,48.30
2018-09-30T15:37:37.314Z,48.30
2018-09-30T15:40:05.866Z,47.80
2018-09-30T15:42:33.968Z,48.30
2018-09-30T15:45:02.075Z,48.00
2018-09-30T15:47:30.342Z,46.90
2018-09-30T15:49:58.626Z,47.20
2018-09-30T15:52:26.915Z,47.90
2018-09-30T15:54:55.024Z,51.00
2018-09-30T15:57:23.303Z,56.20
2018-09-30T15:59:51.927Z,59.20
2018-09-30T16:02:20.255Z,55.40
2018-09-30T16:04:48.497Z,50.10
2018-09-30T16:07:16.680Z,54.40
2018-09-30T16:09:44.790Z,51.70
2018-09-30T16:12:13.182Z,52.00
2018-09-30T16:14:41.336Z,51.00
2018-09-30T16:17:09.978Z,50.30
2018-09-30T16:19:38.087Z,50.30
2018-09-30T16:22:06.233Z,50.10
2018-09-30T16:24:34.468Z,51.20
2018-09-30T16:27:02.719Z,53.90
2018-09-30T16:29:30.829Z,51.80
2018-09-30T16:31:59.075Z,50.60
2018-09-30T16:34:27.296Z,50.10
2018-09-30T16:36:55.463Z,49.70
2018-09-30T16:39:23.646Z,49.40
2018-09-30T16:41:51.776Z,49.70
2018-09-30T16:44:20.048Z,52.20
2018-09-30T16:46:48.208Z,54.20
2018-09-30T16:49:16.416Z,53.20
2018-09-30T16:51:44.876Z,49.80
2018-09-30T16:54:13.019Z,48.40
2018-09-30T16:56:41.156Z,46.50
2018-09-30T16:59:09.260Z,46.50
2018-09-30T17:01:37.344Z,45.40
2018-09-30T17:04:05.459Z,44.30
2018-09-30T17:06:33.894Z,44.50
2018-09-30T17:09:01.942Z,44.00
2018-09-30T17:11:30.035Z,44.40
2018-09-30T17:13:58.144Z,42.70
2018-09-30T17:16:26.235Z,41.10
2018-09-30T17:18:54.404Z,41.60
2018-09-30T17:21:22.480Z,42.40
2018-09-30T17:23:50.573Z,42.40
2018-09-30T17:26:18.730Z,42.80
2018-09-30T17:28:46.891Z,42.90
2018-09-30T17:31:15.053Z,43.30
2018-09-30T17:33:43.114Z,43.80
2018-09-30T17:36:11.203Z,44.50
2018-09-30T17:38:39.316Z,44.70
2018-09-30T17:41:07.408Z,45.00
2018-09-30T17:43:35.521Z,45.30
2018-09-30T17:46:04.732Z,46.00
2018-09-30T17:48:32.863Z,45.80
2018-09-30T17:51:01.026Z,46.00
2018-09-30T17:53:29.214Z,46.20
2018-09-30T17:55:57.315Z,46.30
2018-09-30T17:58:25.477Z,46.30
2018-09-30T18:00:54.344Z,46.40
2018-09-30T18:03:22.448Z,46.50
2018-09-30T18:05:50.819Z,47.10
2018-09-30T18:08:18.956Z,47.00
2018-09-30T18:10:47.062Z,47.10
2018-09-30T18:13:15.174Z,47.20
2018-09-30T18:15:43.264Z,47.20
2018-09-30T18:18:11.375Z,47.20
2018-09-30T18:20:39.488Z,47.40
2018-09-30T18:23:07.587Z,47.30
2018-09-30T18:25:35.712Z,47.30
2018-09-30T18:28:03.803Z,47.40
2018-09-30T18:30:31.896Z,47.40
2018-09-30T18:32:59.975Z,47.40
2018-09-30T18:35:28.170Z,47.60
2018-09-30T18:37:56.344Z,47.60
2018-09-30T18:40:24.439Z,47.60
2018-09-30T18:42:52.531Z,47.60
2018-09-30T18:45:20.631Z,47.60
2018-09-30T18:47:49.000Z,47.70
2018-09-30T18:50:17.171Z,47.60
2018-09-30T18:52:45.247Z,47.60
2018-09-30T18:55:13.352Z,47.70
2018-09-30T18:57:41.448Z,47.70
2018-09-30T19:00:09.580Z,47.70
2018-09-30T19:02:37.763Z,47.60
2018-09-30T19:05:05.876Z,47.70
2018-09-30T19:07:33.971Z,47.70
2018-09-30T19:10:02.368Z,47.80
2018-09-30T19:12:31.361Z,47.70
2018-09-30T19:15:00.707Z,47.60
2018-09-30T19:17:28.824Z,47.80
2018-09-30T19:19:56.961Z,47.70
2018-09-30T19:22:25.551Z,47.80
2018-09-30T19:24:53.995Z,47.80
2018-09-30T19:27:22.129Z,48.00
2018-09-30T19:29:50.225Z,48.00
2018-09-30T19:32:18.327Z,48.10
2018-09-30T19:34:46.779Z,48.10
2018-09-30T19:37:14.891Z,48.20
2018-09-30T19:39:42.994Z,48.30
2018-09-30T19:42:11.107Z,48.40
2018-09-30T19:44:39.488Z,48.40
2018-09-30T19:47:07.617Z,48.50
2018-09-30T19:49:35.756Z,48.50
2018-09-30T19:52:03.883Z,48.60
2018-09-30T19:54:31.984Z,48.60
2018-09-30T19:57:00.171Z,48.60
2018-09-30T19:59:28.506Z,48.40
2018-09-30T20:01:56.586Z,48.50
2018-09-30T20:04:26.031Z,48.40
2018-09-30T20:06:54.307Z,48.40
2018-09-30T20:09:22.440Z,48.40
2018-09-30T20:11:50.498Z,49.00
2018-09-30T20:14:18.735Z,48.40
2018-09-30T20:16:46.910Z,48.40
2018-09-30T20:19:15.086Z,49.10
2018-09-30T20:21:43.183Z,48.40
2018-09-30T20:24:11.279Z,48.40
2018-09-30T20:26:39.583Z,48.40
2018-09-30T20:29:07.727Z,48.30
2018-09-30T20:31:35.820Z,48.30
2018-09-30T20:34:03.931Z,48.30
2018-09-30T20:36:32.125Z,48.30
2018-09-30T20:39:00.231Z,48.30
2018-09-30T20:41:28.420Z,48.20
2018-09-30T20:43:56.529Z,48.20
2018-09-30T20:46:24.813Z,48.30
2018-09-30T20:48:52.983Z,48.30
2018-09-30T20:51:21.179Z,48.30
2018-09-30T20:53:49.508Z,48.30
2018-09-30T20:56:17.621Z,48.30
2018-09-30T20:58:46.072Z,48.40
2018-09-30T21:01:14.161Z,48.50
2018-09-30T21:03:42.295Z,48.50
2018-09-30T21:06:15.101Z,48.40
2018-09-30T21:08:44.162Z,48.40
2018-09-30T21:11:12.593Z,48.40
2018-09-30T21:13:40.875Z,48.50
2018-09-30T21:16:09.146Z,48.50
2018-09-30T21:18:37.328Z,48.60
2018-09-30T21:21:05.435Z,48.60
2018-09-30T21:23:33.524Z,48.60
2018-09-30T21:26:01.614Z,48.50
2018-09-30T21:28:29.785Z,48.10
2018-09-30T21:30:57.811Z,48.20
2018-09-30T21:33:25.941Z,48.10
2018-09-30T21:35:54.031Z,48.50
2018-09-30T21:38:22.240Z,47.60
2018-09-30T21:40:50.330Z,47.70
2018-09-30T21:43:18.891Z,47.60
2018-09-30T21:45:46.999Z,47.50
2018-09-30T21:48:16.359Z,47.40
2018-09-30T21:50:44.470Z,47.40
2018-09-30T21:53:13.323Z,47.40
2018-09-30T21:55:41.596Z,47.30
2018-09-30T21:58:09.880Z,47.40
2018-09-30T22:00:38.858Z,47.40
2018-09-30T22:03:09.037Z,47.30
2018-09-30T22:05:37.467Z,47.70
2018-09-30T22:08:06.672Z,47.30
2018-09-30T22:10:34.764Z,47.30
2018-09-30T22:13:02.917Z,47.20
2018-09-30T22:15:31.114Z,47.20
2018-09-30T22:17:59.216Z,47.20
2018-09-30T22:20:27.532Z,47.20
2018-09-30T22:22:55.731Z,47.20
2018-09-30T22:25:23.819Z,47.30
2018-09-30T22:27:51.938Z,47.30
2018-09-30T22:30:20.046Z,47.30
2018-09-30T22:32:48.130Z,47.20
2018-09-30T22:35:16.231Z,47.20
2018-09-30T22:37:44.319Z,47.30
2018-09-30T22:40:12.452Z,47.30
2018-09-30T22:42:40.504Z,47.20
2018-09-30T22:45:08.591Z,47.20
2018-09-30T22:47:37.227Z,47.30
2018-09-30T22:50:05.491Z,47.30
2018-09-30T22:52:33.700Z,47.30
2018-09-30T22:55:01.787Z,47.30
2018-09-30T22:57:30.020Z,47.20
2018-09-30T22:59:58.103Z,47.10
2018-09-30T23:02:26.359Z,47.10
2018-09-30T23:04:54.452Z,47.10
2018-09-30T23:07:23.160Z,47.20
2018-09-30T23:09:51.249Z,47.20
2018-09-30T23:12:19.339Z,47.10
2018-09-30T23:14:47.411Z,47.10
2018-09-30T23:17:15.502Z,47.10
2018-09-30T23:19:43.600Z,47.10
2018-09-30T23:22:11.694Z,47.10
2018-09-30T23:24:39.840Z,47.10
2018-09-30T23:27:07.933Z,47.00
2018-09-30T23:29:36.033Z,47.10
2018-09-30T23:32:04.123Z,47.00
2018-09-30T23:34:32.330Z,47.00
2018-09-30T23:37:00.420Z,47.10
2018-09-30T23:39:28.510Z,47.00
2018-09-30T23:41:56.586Z,47.00
2018-09-30T23:44:24.683Z,47.10
2018-09-30T23:46:52.779Z,47.10
2018-09-30T23:49:20.887Z,47.00
2018-09-30T23:51:48.962Z,47.00
2018-09-30T23:54:17.094Z,47.00
2018-09-30T23:56:45.119Z,47.00
2018-09-30T23:59:13.213Z,47.00
